Time;durP1;ratioP1;P1;durP2;ratioP2;P2;SDS_P1;SDS_P2;PMS_P1;PMS_P2;Temp;Humidity;BMP_temperature;BMP_pressure;BME280_temperature;BME280_humidity;BME280_pressure;Samples;Min_cycle;Max_cycle;Signal;HPM_P1;HPM_P2
2022/06/11 00:01:42;;;;;;;9.82;3.83;;;17.60;99.90;;;;;;4977729;28;20072;-81
2022/06/11 00:04:12;;;;;;;10.38;4.13;;;17.60;99.90;;;;;;4945367;28;20045;-81
2022/06/11 00:06:43;;;;;;;11.35;3.90;;;17.60;99.90;;;;;;4949041;28;20042;-82
2022/06/11 00:09:10;;;;;;;10.15;3.78;;;17.50;99.90;;;;;;4964787;28;20065;-81
2022/06/11 00:11:37;;;;;;;9.77;3.55;;;17.50;99.90;;;;;;4949464;28;20064;-81
2022/06/11 00:14:04;;;;;;;12.52;4.32;;;17.50;99.90;;;;;;4930538;28;20508;-81
2022/06/11 00:16:30;;;;;;;10.15;3.92;;;17.50;99.90;;;;;;4948579;28;20035;-81
2022/06/11 00:18:58;;;;;;;10.75;4.05;;;17.40;99.90;;;;;;4948610;28;20148;-81
2022/06/11 00:21:26;;;;;;;12.52;4.22;;;17.40;99.90;;;;;;4964183;28;20117;-81
2022/06/11 00:23:52;;;;;;;9.55;3.80;;;17.30;99.90;;;;;;4948479;28;20105;-82
2022/06/11 00:26:19;;;;;;;10.35;4.40;;;17.20;99.90;;;;;;4947709;28;20034;-82
2022/06/11 00:28:44;;;;;;;10.82;3.92;;;17.20;99.90;;;;;;4947847;28;20092;-81
2022/06/11 00:31:11;;;;;;;8.77;4.05;;;17.20;99.90;;;;;;4917238;28;20087;-81
2022/06/11 00:33:37;;;;;;;9.60;4.03;;;17.20;99.90;;;;;;4916871;29;20043;-81
2022/06/11 00:36:05;;;;;;;12.70;4.47;;;17.10;99.90;;;;;;4930553;29;20043;-81
2022/06/11 00:38:31;;;;;;;11.38;4.40;;;17.10;99.90;;;;;;4947413;28;20043;-81
2022/06/11 00:40:57;;;;;;;10.80;4.40;;;17.10;99.90;;;;;;4928897;29;20572;-81
2022/06/11 00:43:25;;;;;;;9.55;4.13;;;17.00;99.90;;;;;;4928991;29;20070;-81
2022/06/11 00:46:13;;;;;;;11.13;4.57;;;17.00;99.90;;;;;;4942383;28;20584;-81
2022/06/11 00:48:41;;;;;;;12.80;4.20;;;16.90;99.90;;;;;;4924233;28;20442;-81
2022/06/11 00:51:20;;;;;;;10.52;4.35;;;16.90;99.90;;;;;;4927746;29;20046;-81
2022/06/11 00:53:50;;;;;;;10.13;4.10;;;16.90;99.90;;;;;;4944286;28;20039;-81
2022/06/11 00:56:26;;;;;;;10.43;3.40;;;16.80;99.90;;;;;;4929081;29;20047;-81
2022/06/11 00:58:55;;;;;;;10.05;3.22;;;16.70;99.90;;;;;;4943479;28;20055;-81
2022/06/11 01:01:24;;;;;;;11.50;3.55;;;16.70;99.90;;;;;;4909669;29;20067;-81
2022/06/11 01:03:57;;;;;;;11.63;3.70;;;16.70;99.90;;;;;;4925604;28;20047;-81
2022/06/11 01:06:38;;;;;;;10.30;3.40;;;16.60;99.90;;;;;;4942721;28;20541;-82
2022/06/11 01:09:15;;;;;;;10.25;3.40;;;16.60;99.90;;;;;;4927033;29;20128;-82
2022/06/11 01:12:05;;;;;;;9.45;3.17;;;16.60;99.90;;;;;;4927404;29;20035;-81
2022/06/11 01:14:48;;;;;;;9.90;3.05;;;16.50;99.90;;;;;;4943132;28;20039;-81
2022/06/11 01:17:57;;;;;;;9.27;2.92;;;16.50;99.90;;;;;;4946188;28;20050;-81
2022/06/11 01:20:31;;;;;;;10.30;2.83;;;16.40;99.90;;;;;;4945577;28;20150;-81
2022/06/11 01:23:21;;;;;;;10.82;2.80;;;16.30;99.90;;;;;;4946981;28;20536;-81
2022/06/11 01:25:49;;;;;;;9.95;3.00;;;16.30;99.90;;;;;;4929155;28;20059;-81
2022/06/11 01:29:00;;;;;;;9.48;2.42;;;16.20;99.90;;;;;;4948934;28;20097;-81
2022/06/11 01:31:34;;;;;;;9.13;2.60;;;16.20;99.90;;;;;;4954141;28;20407;-81
2022/06/11 01:34:18;;;;;;;8.07;2.35;;;16.10;99.90;;;;;;4969135;28;20040;-81
2022/06/11 01:36:49;;;;;;;9.55;2.67;;;16.10;99.90;;;;;;4969897;28;20046;-81
2022/06/11 01:39:37;;;;;;;10.05;2.85;;;16.00;99.90;;;;;;4951628;28;20092;-81
2022/06/11 01:42:26;;;;;;;10.68;2.60;;;16.00;99.90;;;;;;4962901;28;20050;-81
2022/06/11 01:45:23;;;;;;;8.32;2.35;;;16.00;99.90;;;;;;4951639;28;20039;-81
2022/06/11 01:47:50;;;;;;;8.68;2.35;;;15.90;99.90;;;;;;4968764;28;20423;-81
2022/06/11 01:50:19;;;;;;;10.52;2.58;;;15.90;99.90;;;;;;4978305;28;20416;-81
2022/06/11 01:53:25;;;;;;;9.85;2.40;;;15.90;99.90;;;;;;4954399;28;20034;-81
2022/06/11 01:56:40;;;;;;;10.05;2.67;;;15.80;99.90;;;;;;4952172;28;20045;-81
2022/06/11 01:59:26;;;;;;;9.95;2.60;;;15.80;99.90;;;;;;4935338;28;20061;-81
2022/06/11 02:02:02;;;;;;;8.70;2.15;;;15.70;99.90;;;;;;4972365;28;20504;-81
2022/06/11 02:04:34;;;;;;;9.88;2.30;;;15.70;99.90;;;;;;4966097;28;20413;-82
2022/06/11 02:07:03;;;;;;;10.40;2.40;;;15.70;99.90;;;;;;4952128;28;20134;-81
2022/06/11 02:09:54;;;;;;;8.63;2.58;;;15.60;99.90;;;;;;4967690;28;20046;-81
2022/06/11 02:12:29;;;;;;;8.95;2.47;;;15.60;99.90;;;;;;4962764;28;20034;-81
2022/06/11 02:15:03;;;;;;;12.60;2.97;;;15.60;99.90;;;;;;4968842;28;20045;-81
2022/06/11 02:17:37;;;;;;;10.65;2.53;;;15.40;99.90;;;;;;4968965;28;20049;-81
2022/06/11 02:20:14;;;;;;;8.93;2.17;;;15.50;99.90;;;;;;4967834;28;20303;-81
2022/06/11 02:23:12;;;;;;;10.77;2.55;;;15.50;99.90;;;;;;4966683;28;20472;-81
2022/06/11 02:25:49;;;;;;;8.52;2.03;;;15.40;99.90;;;;;;4957767;28;20188;-82
2022/06/11 02:28:20;;;;;;;8.35;2.15;;;15.40;99.90;;;;;;4963338;28;20049;-82
2022/06/11 02:30:48;;;;;;;16.17;2.65;;;15.40;99.90;;;;;;4976464;28;20043;-82
2022/06/11 02:33:17;;;;;;;10.50;2.65;;;15.40;99.90;;;;;;4952428;28;20132;-82
2022/06/11 02:35:47;;;;;;;12.82;2.95;;;15.40;99.90;;;;;;4950628;28;20078;-82
2022/06/11 02:38:16;;;;;;;11.57;2.97;;;15.30;99.90;;;;;;4966630;28;20081;-82
2022/06/11 02:40:46;;;;;;;9.77;2.40;;;15.30;99.90;;;;;;4968933;28;20069;-82
2022/06/11 02:43:12;;;;;;;9.27;2.13;;;15.30;99.90;;;;;;4967704;28;20050;-81
2022/06/11 02:45:38;;;;;;;10.32;2.50;;;15.30;99.90;;;;;;4951515;28;20041;-82
2022/06/11 02:48:04;;;;;;;11.55;2.67;;;15.20;99.90;;;;;;4950518;28;20062;-81
2022/06/11 02:50:33;;;;;;;10.00;2.08;;;15.20;99.90;;;;;;4950452;28;20477;-82
2022/06/11 02:53:02;;;;;;;9.88;2.40;;;15.20;99.90;;;;;;4951854;28;20042;-81
2022/06/11 02:55:29;;;;;;;10.52;2.50;;;15.20;99.90;;;;;;4966343;28;20026;-81
2022/06/11 02:57:55;;;;;;;10.50;2.40;;;15.20;99.90;;;;;;4936977;28;20042;-82
2022/06/11 03:00:31;;;;;;;8.13;2.20;;;15.20;99.90;;;;;;4951758;28;20315;-82
2022/06/11 03:02:58;;;;;;;10.23;2.40;;;15.20;99.90;;;;;;4966496;28;20461;-82
2022/06/11 03:05:28;;;;;;;10.07;2.50;;;15.10;99.90;;;;;;4952690;28;20125;-81
2022/06/11 03:07:55;;;;;;;10.38;2.35;;;15.10;99.90;;;;;;4952424;28;20046;-81
2022/06/11 03:10:23;;;;;;;9.07;2.40;;;15.10;99.90;;;;;;4984996;28;20046;-81
2022/06/11 03:12:49;;;;;;;9.95;2.42;;;15.10;99.90;;;;;;4965759;28;20500;-81
2022/06/11 03:15:16;;;;;;;11.80;2.50;;;15.10;99.90;;;;;;4952557;28;20030;-81
2022/06/11 03:17:44;;;;;;;8.60;2.53;;;15.10;99.90;;;;;;4951389;28;20124;-81
2022/06/11 03:20:11;;;;;;;10.95;2.88;;;15.10;99.90;;;;;;4949592;28;20043;-81
2022/06/11 03:22:37;;;;;;;10.35;2.78;;;15.00;99.90;;;;;;4952141;28;20041;-81
2022/06/11 03:25:04;;;;;;;9.85;2.60;;;15.00;99.90;;;;;;4936233;28;20468;-81
2022/06/11 03:27:30;;;;;;;13.13;3.30;;;15.00;99.90;;;;;;4967331;28;20065;-81
2022/06/11 03:29:55;;;;;;;9.57;2.80;;;15.00;99.90;;;;;;4950975;28;20054;-81
2022/06/11 03:32:21;;;;;;;10.40;2.70;;;15.00;99.90;;;;;;4946046;28;20053;-81
2022/06/11 03:34:47;;;;;;;11.27;2.92;;;15.00;99.90;;;;;;4916533;28;20034;-81
2022/06/11 03:37:13;;;;;;;11.07;3.08;;;14.90;99.90;;;;;;4948882;28;20049;-81
2022/06/11 03:39:39;;;;;;;9.90;2.90;;;14.90;99.90;;;;;;4964021;28;20042;-81
2022/06/11 03:42:06;;;;;;;9.60;2.60;;;14.90;99.90;;;;;;4963351;28;20470;-81
2022/06/11 03:44:32;;;;;;;10.40;2.80;;;14.90;99.90;;;;;;4931023;28;20042;-82
2022/06/11 03:46:58;;;;;;;10.48;2.85;;;14.90;99.90;;;;;;4945722;28;20058;-81
2022/06/11 03:49:24;;;;;;;9.05;2.90;;;14.90;99.90;;;;;;4946629;28;20046;-81
2022/06/11 03:51:50;;;;;;;14.05;3.40;;;14.90;99.90;;;;;;4964794;28;20031;-82
2022/06/11 03:54:17;;;;;;;10.63;3.03;;;14.90;99.90;;;;;;4948191;28;20505;-81
2022/06/11 03:56:46;;;;;;;10.55;3.00;;;15.00;99.90;;;;;;4964447;28;20125;-81
2022/06/11 03:59:11;;;;;;;12.10;3.10;;;14.90;99.90;;;;;;4948403;28;20390;-81
2022/06/11 04:01:39;;;;;;;13.38;3.50;;;14.90;99.90;;;;;;4946915;28;20042;-81
2022/06/11 04:04:09;;;;;;;13.10;3.35;;;14.90;99.90;;;;;;4964262;28;20123;-81
2022/06/11 04:06:41;;;;;;;14.30;3.42;;;15.00;99.90;;;;;;4963551;28;20058;-81
2022/06/11 04:09:11;;;;;;;11.82;3.38;;;15.00;99.90;;;;;;4947114;28;20034;-81
2022/06/11 04:11:37;;;;;;;10.80;2.97;;;15.10;99.90;;;;;;4949223;28;20540;-82
2022/06/11 04:14:03;;;;;;;12.27;3.50;;;15.10;99.90;;;;;;4963382;28;20039;-81
2022/06/11 04:16:34;;;;;;;11.27;3.58;;;15.20;99.90;;;;;;4972290;28;20097;-81
2022/06/11 04:19:03;;;;;;;12.63;3.90;;;15.20;99.90;;;;;;4963134;28;20062;-81
2022/06/11 04:21:31;;;;;;;14.88;3.58;;;15.30;99.90;;;;;;4944936;28;20049;-82
2022/06/11 04:23:59;;;;;;;13.13;3.90;;;15.30;99.90;;;;;;4940209;28;20430;-82
2022/06/11 04:26:33;;;;;;;13.70;3.40;;;15.40;99.90;;;;;;4947888;28;20043;-81
2022/06/11 04:29:00;;;;;;;12.15;3.80;;;15.40;99.90;;;;;;4945556;28;20070;-81
2022/06/11 04:31:27;;;;;;;13.13;3.58;;;15.50;99.90;;;;;;4961755;28;20035;-82
2022/06/11 04:33:54;;;;;;;11.23;3.40;;;15.50;99.90;;;;;;4931059;28;20665;-81
2022/06/11 04:36:23;;;;;;;11.10;3.03;;;15.50;99.90;;;;;;4964200;28;20097;-82
2022/06/11 04:38:49;;;;;;;13.13;3.50;;;15.60;99.90;;;;;;4949114;28;20046;-82
2022/06/11 04:41:15;;;;;;;12.00;3.38;;;15.60;99.90;;;;;;4946032;28;20073;-81
2022/06/11 04:43:41;;;;;;;12.70;3.08;;;15.60;99.90;;;;;;4963951;28;20046;-82
2022/06/11 04:46:08;;;;;;;13.68;3.33;;;15.70;99.90;;;;;;4963733;28;20039;-81
2022/06/11 04:48:34;;;;;;;12.45;3.25;;;15.70;99.90;;;;;;4932209;28;20050;-82
2022/06/11 04:51:01;;;;;;;12.98;2.85;;;15.80;99.90;;;;;;4949206;28;20034;-81
2022/06/11 04:53:27;;;;;;;11.20;2.95;;;15.80;99.90;;;;;;4936939;28;20042;-81
2022/06/11 04:55:52;;;;;;;13.00;3.17;;;15.90;99.90;;;;;;4949923;28;20137;-82
2022/06/11 04:58:18;;;;;;;11.25;3.00;;;15.90;99.90;;;;;;4935730;28;20051;-81
2022/06/11 05:00:44;;;;;;;11.98;3.20;;;15.90;99.90;;;;;;4934232;28;20309;-82
2022/06/11 05:03:10;;;;;;;12.10;3.15;;;16.00;99.90;;;;;;4949694;28;20035;-82
2022/06/11 05:05:36;;;;;;;14.02;3.20;;;16.00;99.90;;;;;;4952385;28;20480;-83
2022/06/11 05:08:03;;;;;;;10.63;3.22;;;16.00;99.90;;;;;;4933376;28;20042;-81
2022/06/11 05:10:31;;;;;;;10.60;3.05;;;16.10;99.90;;;;;;4935409;28;20061;-82
2022/06/11 05:12:57;;;;;;;11.48;3.35;;;16.10;99.90;;;;;;4950160;28;20043;-82
2022/06/11 05:15:24;;;;;;;12.07;3.58;;;16.20;99.90;;;;;;4935728;28;20118;-82
2022/06/11 05:17:50;;;;;;;16.17;4.15;;;16.30;99.90;;;;;;4966355;28;20042;-83
2022/06/11 05:20:17;;;;;;;12.65;3.53;;;16.30;99.90;;;;;;4971205;28;20031;-82
2022/06/11 05:22:45;;;;;;;13.05;4.00;;;16.80;99.90;;;;;;4965500;28;20034;-82
2022/06/11 05:25:13;;;;;;;14.75;3.90;;;16.40;99.90;;;;;;4950590;28;20041;-82
2022/06/11 05:27:40;;;;;;;12.10;3.42;;;16.40;99.90;;;;;;4964400;28;20592;-82
2022/06/11 05:30:21;;;;;;;12.88;3.83;;;16.40;99.90;;;;;;4963049;28;20461;-81
2022/06/11 05:32:48;;;;;;;15.32;4.35;;;16.50;99.90;;;;;;4952197;28;20054;-82
2022/06/11 05:35:35;;;;;;;15.68;3.97;;;16.50;99.90;;;;;;4951045;28;20125;-82
2022/06/11 05:38:05;;;;;;;13.88;3.55;;;16.50;99.90;;;;;;4954431;28;20054;-83
2022/06/11 05:40:36;;;;;;;14.00;3.63;;;16.60;99.90;;;;;;4953570;28;20512;-83
2022/06/11 05:43:02;;;;;;;17.25;4.30;;;16.70;99.90;;;;;;4969832;28;20127;-82
2022/06/11 05:45:48;;;;;;;16.33;4.45;;;16.90;99.90;;;;;;4952411;28;20509;-82
2022/06/11 05:48:16;;;;;;;12.95;3.53;;;16.70;99.90;;;;;;4967778;28;20034;-82
2022/06/11 05:50:45;;;;;;;16.08;4.00;;;16.80;99.90;;;;;;4950634;28;20038;-82
2022/06/11 05:53:14;;;;;;;14.93;4.00;;;16.80;99.90;;;;;;4971280;28;20038;-83
2022/06/11 05:55:41;;;;;;;16.13;3.70;;;16.90;99.90;;;;;;4953005;28;20117;-83
2022/06/11 05:58:19;;;;;;;14.57;3.78;;;16.90;99.90;;;;;;4954666;28;20045;-83
2022/06/11 06:00:46;;;;;;;14.68;4.18;;;16.90;99.90;;;;;;4955944;28;20123;-81
2022/06/11 06:03:12;;;;;;;14.52;3.95;;;17.00;99.90;;;;;;4953640;28;20524;-83
2022/06/11 06:05:39;;;;;;;17.42;4.30;;;17.00;99.90;;;;;;4954206;28;20080;-82
2022/06/11 06:08:06;;;;;;;17.20;4.75;;;17.10;99.90;;;;;;4952688;28;20117;-82
2022/06/11 06:10:32;;;;;;;17.45;3.97;;;17.10;99.90;;;;;;4951974;28;20035;-83
2022/06/11 06:12:57;;;;;;;19.50;4.38;;;17.10;99.90;;;;;;4955071;28;20112;-83
2022/06/11 06:15:27;;;;;;;19.23;4.68;;;17.20;99.90;;;;;;4935605;28;20360;-82
2022/06/11 06:17:54;;;;;;;16.55;4.45;;;17.20;99.90;;;;;;4970036;28;20504;-82
2022/06/11 06:20:23;;;;;;;16.13;4.82;;;17.30;99.90;;;;;;4953409;28;20038;-83
2022/06/11 06:22:49;;;;;;;17.85;4.70;;;17.30;99.90;;;;;;4955061;28;20484;-83
2022/06/11 06:25:19;;;;;;;16.70;4.70;;;17.40;99.90;;;;;;4969853;28;20290;-83
2022/06/11 06:27:45;;;;;;;21.13;4.68;;;17.40;99.90;;;;;;4955302;28;20038;-84
2022/06/11 06:30:11;;;;;;;17.00;3.85;;;17.50;99.90;;;;;;4948071;28;20046;-85
2022/06/11 06:32:37;;;;;;;15.48;3.80;;;17.50;99.90;;;;;;4970531;28;20116;-84
2022/06/11 06:35:03;;;;;;;14.52;4.28;;;17.60;99.90;;;;;;4952601;28;20069;-86
2022/06/11 06:37:29;;;;;;;21.80;4.75;;;17.60;99.90;;;;;;4952729;28;20042;-82
2022/06/11 06:39:54;;;;;;;20.38;4.50;;;17.70;99.90;;;;;;4953869;28;20053;-84
2022/06/11 06:42:20;;;;;;;18.25;4.60;;;17.70;99.90;;;;;;4937371;28;20038;-85
2022/06/11 06:44:46;;;;;;;17.85;4.35;;;17.70;99.90;;;;;;4954897;28;20468;-83
2022/06/11 06:47:12;;;;;;;14.60;4.18;;;17.80;99.90;;;;;;4970444;28;20046;-83
2022/06/11 06:49:37;;;;;;;19.75;4.75;;;17.90;99.90;;;;;;4952797;28;20060;-83
2022/06/11 06:52:03;;;;;;;21.65;4.57;;;17.90;99.90;;;;;;4952120;28;20126;-83
2022/06/11 06:54:30;;;;;;;18.48;4.72;;;18.00;99.90;;;;;;4954285;28;20076;-82
2022/06/11 06:56:55;;;;;;;18.65;5.28;;;18.10;99.90;;;;;;4953768;28;20310;-84
2022/06/11 06:59:22;;;;;;;16.65;4.40;;;18.30;99.90;;;;;;4967814;28;20157;-83
2022/06/11 07:01:48;;;;;;;20.20;4.75;;;18.40;99.90;;;;;;4934137;28;20069;-84
2022/06/11 07:04:14;;;;;;;17.38;4.75;;;18.40;99.90;;;;;;4947308;28;20038;-84
2022/06/11 07:06:40;;;;;;;16.30;4.53;;;18.40;99.90;;;;;;4968252;28;20045;-82
2022/06/11 07:09:07;;;;;;;18.25;4.20;;;18.50;99.90;;;;;;4936345;28;20078;-82
2022/06/11 07:11:33;;;;;;;19.38;4.50;;;18.50;99.90;;;;;;4953679;28;20030;-83
2022/06/11 07:13:59;;;;;;;16.13;4.25;;;18.60;99.90;;;;;;4967971;28;20038;-82
2022/06/11 07:16:37;;;;;;;19.10;4.55;;;18.60;99.90;;;;;;4953828;28;20587;-82
2022/06/11 07:19:09;;;;;;;17.25;4.18;;;18.70;99.90;;;;;;4966619;28;20104;-82
2022/06/11 07:21:40;;;;;;;;;;;18.80;99.90;;;;;;4971873;28;20046;-83
2022/06/11 07:24:17;;;;;;;19.83;4.63;;;18.90;99.90;;;;;;4950341;28;20041;-83
2022/06/11 07:26:47;;;;;;;19.45;4.88;;;19.00;99.90;;;;;;4953139;28;20038;-83
2022/06/11 07:29:27;;;;;;;19.00;4.45;;;19.10;99.90;;;;;;4948357;28;20136;-82
2022/06/11 07:32:01;;;;;;;19.55;4.70;;;19.10;99.90;;;;;;4963578;28;20081;-81
2022/06/11 07:34:28;;;;;;;19.52;4.60;;;19.00;99.90;;;;;;4950515;28;20095;-84
2022/06/11 07:36:56;;;;;;;17.85;4.93;;;19.00;99.90;;;;;;4951120;28;20056;-85
2022/06/11 07:39:22;;;;;;;18.10;4.53;;;19.10;99.90;;;;;;4948464;28;20104;-84
2022/06/11 07:41:47;;;;;;;17.55;4.47;;;19.20;99.90;;;;;;4933509;28;21371;-84
2022/06/11 07:44:13;;;;;;;15.77;4.38;;;19.30;99.90;;;;;;4948674;28;20046;-84
2022/06/11 07:46:39;;;;;;;18.77;4.45;;;19.40;99.90;;;;;;4932553;28;20078;-84
2022/06/11 07:49:04;;;;;;;19.23;5.05;;;19.40;99.90;;;;;;4946925;28;20093;-83
2022/06/11 07:51:30;;;;;;;20.95;4.65;;;19.40;99.90;;;;;;4931859;28;20039;-83
2022/06/11 07:53:56;;;;;;;16.80;4.43;;;19.60;99.90;;;;;;4947382;28;20042;-83
2022/06/11 07:56:22;;;;;;;19.15;4.82;;;19.60;99.90;;;;;;4965484;28;20042;-83
2022/06/11 07:58:52;;;;;;;20.95;4.30;;;19.70;99.90;;;;;;4942526;28;20450;-84
2022/06/11 08:01:19;;;;;;;22.42;4.70;;;19.70;99.90;;;;;;4947408;28;20653;-84
2022/06/11 08:03:44;;;;;;;21.10;4.78;;;19.70;99.90;;;;;;4951361;28;20053;-83
2022/06/11 08:06:10;;;;;;;21.65;4.60;;;19.90;99.90;;;;;;4950264;28;20039;-83
2022/06/11 08:08:37;;;;;;;18.73;4.30;;;19.90;99.90;;;;;;4946419;28;20030;-83
2022/06/11 08:11:05;;;;;;;17.30;4.30;;;19.80;99.90;;;;;;4967359;28;20181;-84
2022/06/11 08:13:31;;;;;;;18.17;4.57;;;19.70;99.90;;;;;;4953073;28;20576;-84
2022/06/11 08:15:58;;;;;;;20.60;4.07;;;19.70;99.90;;;;;;4950219;29;20134;-83
2022/06/11 08:18:25;;;;;;;16.65;4.47;;;19.70;99.90;;;;;;4940049;28;20078;-83
2022/06/11 08:20:51;;;;;;;21.27;4.63;;;19.90;99.90;;;;;;4967687;28;20141;-83
2022/06/11 08:23:18;;;;;;;17.42;4.25;;;20.00;99.90;;;;;;4952504;28;20168;-83
2022/06/11 08:25:44;;;;;;;17.35;4.15;;;20.10;99.90;;;;;;4968832;28;20047;-83
2022/06/11 08:28:12;;;;;;;16.55;4.15;;;20.20;99.90;;;;;;4937056;28;20409;-83
2022/06/11 08:30:38;;;;;;;16.13;3.83;;;20.20;99.90;;;;;;4952670;28;20081;-84
2022/06/11 08:33:04;;;;;;;21.10;4.35;;;20.30;99.90;;;;;;4967949;28;20462;-83
2022/06/11 08:35:31;;;;;;;17.60;4.28;;;20.20;99.90;;;;;;4953145;28;20042;-82
2022/06/11 08:37:57;;;;;;;18.67;4.15;;;20.30;99.90;;;;;;4948780;29;20039;-83
2022/06/11 08:40:50;;;;;;;18.27;4.00;;;20.40;99.90;;;;;;4931065;29;20047;-83
2022/06/11 08:43:16;;;;;;;;;;;20.50;99.90;;;;;;4946371;28;20051;-83
2022/06/11 08:45:43;;;;;;;15.95;3.83;;;20.50;99.90;;;;;;4953231;28;20446;-83
2022/06/11 08:48:19;;;;;;;21.38;4.10;;;20.50;99.90;;;;;;4968807;28;20055;-83
2022/06/11 08:51:16;;;;;;;16.75;4.18;;;20.60;99.90;;;;;;4953055;28;20094;-83
2022/06/11 08:53:42;;;;;;;18.92;4.45;;;20.70;99.90;;;;;;4948377;28;20131;-83
2022/06/11 08:56:27;;;;;;;17.25;4.03;;;20.70;99.90;;;;;;4933733;29;20507;-83
2022/06/11 08:59:23;;;;;;;18.00;3.75;;;20.80;99.90;;;;;;4949475;28;20054;-84
2022/06/11 09:02:12;;;;;;;16.70;3.72;;;20.80;99.90;;;;;;4949650;28;20130;-83
2022/06/11 09:04:43;;;;;;;19.00;4.07;;;20.90;99.90;;;;;;4950886;28;20508;-83
2022/06/11 09:07:16;;;;;;;17.52;4.25;;;20.90;99.90;;;;;;4939579;28;20058;-83
2022/06/11 09:10:01;;;;;;;15.77;3.92;;;20.70;99.90;;;;;;4952025;28;20043;-83
2022/06/11 09:12:54;;;;;;;19.38;3.85;;;20.60;99.90;;;;;;4939646;28;20035;-83
2022/06/11 09:15:41;;;;;;;14.63;4.20;;;20.70;99.90;;;;;;4963089;28;20456;-84
2022/06/11 09:18:36;;;;;;;16.38;4.38;;;20.70;99.90;;;;;;4967202;28;20050;-83
2022/06/11 09:21:19;;;;;;;15.77;4.28;;;20.90;99.90;;;;;;4981524;28;20323;-84
2022/06/11 09:24:08;;;;;;;16.65;3.38;;;21.10;99.90;;;;;;4958774;28;20162;-84
2022/06/11 09:26:48;;;;;;;16.98;4.13;;;21.00;99.90;;;;;;4946951;28;20558;-85
2022/06/11 09:29:38;;;;;;;15.18;3.80;;;20.80;99.90;;;;;;4954573;28;20051;-80
2022/06/11 09:32:24;;;;;;;16.17;3.63;;;20.90;99.90;;;;;;4945686;28;20038;-81
2022/06/11 09:35:10;;;;;;;13.85;3.35;;;21.10;99.90;;;;;;4964810;28;20493;-80
2022/06/11 09:37:58;;;;;;;17.27;3.70;;;21.30;99.90;;;;;;4953939;28;20436;-85
2022/06/11 09:40:42;;;;;;;14.77;3.35;;;21.40;99.90;;;;;;4950428;28;20078;-82
2022/06/11 09:43:18;;;;;;;12.43;3.10;;;21.60;99.90;;;;;;4952370;28;20038;-79
2022/06/11 09:46:23;;;;;;;13.82;3.20;;;21.60;99.90;;;;;;4971595;28;20051;-81
2022/06/11 09:49:12;;;;;;;14.38;3.60;;;21.70;99.90;;;;;;4943675;28;20433;-87
2022/06/11 09:52:01;;;;;;;16.02;3.47;;;21.50;99.90;;;;;;4967444;28;20387;-82
2022/06/11 09:54:30;;;;;;;14.25;3.17;;;21.20;99.90;;;;;;4956486;28;20044;-82
2022/06/11 09:57:11;;;;;;;19.33;3.20;;;20.90;99.90;;;;;;4949432;28;20045;-83
2022/06/11 09:59:51;;;;;;;15.80;3.00;;;20.70;99.90;;;;;;4959101;28;20039;-83
2022/06/11 10:05:13;;;;;;;14.23;3.15;;;20.70;99.90;;;;;;4958462;28;20058;-84
2022/06/11 10:07:44;;;;;;;15.50;4.05;;;20.80;99.90;;;;;;4955299;28;20046;-82
2022/06/11 10:10:21;;;;;;;12.27;2.88;;;21.00;99.90;;;;;;4954263;28;20070;-83
2022/06/11 10:12:52;;;;;;;14.75;3.08;;;21.20;99.90;;;;;;4952633;28;20042;-82
2022/06/11 10:15:40;;;;;;;14.10;2.92;;;21.00;99.90;;;;;;4936228;29;20166;-82
2022/06/11 10:18:12;;;;;;;15.63;3.47;;;20.80;99.90;;;;;;4951664;28;20130;-82
2022/06/11 10:20:50;;;;;;;13.60;3.00;;;21.00;99.90;;;;;;4952308;28;20085;-82
2022/06/11 10:23:28;;;;;;;18.27;3.58;;;21.10;99.90;;;;;;4944686;28;20035;-82
2022/06/11 10:26:08;;;;;;;14.70;3.00;;;21.30;99.90;;;;;;4986103;28;20043;-83
2022/06/11 10:28:39;;;;;;;12.23;3.03;;;21.20;99.90;;;;;;4945468;28;20054;-87
2022/06/11 10:31:09;;;;;;;12.65;3.33;;;21.30;99.90;;;;;;4944436;28;20055;-84
2022/06/11 10:34:03;;;;;;;12.77;2.88;;;21.50;99.90;;;;;;4946157;28;20121;-79
2022/06/11 10:36:34;;;;;;;15.77;3.33;;;21.80;99.90;;;;;;4971238;28;20069;-78
2022/06/11 10:39:29;;;;;;;13.17;2.63;;;22.00;99.90;;;;;;4967912;28;20130;-76
2022/06/11 10:42:10;;;;;;;10.75;2.50;;;22.10;99.90;;;;;;4946613;28;20054;-76
2022/06/11 10:44:40;;;;;;;11.32;2.85;;;22.20;99.90;;;;;;4944994;28;20494;-80
2022/06/11 10:47:17;;;;;;;15.38;3.22;;;22.10;99.90;;;;;;4964880;28;20034;-91
2022/06/11 10:49:50;;;;;;;16.50;3.08;;;22.10;99.90;;;;;;4967892;28;20045;-80
2022/06/11 10:52:33;;;;;;;11.35;3.10;;;22.20;99.90;;;;;;4969585;28;20042;-86
2022/06/11 10:54:58;;;;;;;15.10;2.85;;;22.30;99.90;;;;;;4953157;28;21197;-86
2022/06/11 10:57:27;;;;;;;10.77;2.58;;;22.20;99.90;;;;;;4950750;28;20051;-88
2022/06/11 11:00:18;;;;;;;11.43;2.67;;;22.20;99.90;;;;;;4949713;28;20130;-85
2022/06/11 11:02:56;;;;;;;13.55;2.88;;;22.10;99.90;;;;;;4962077;28;20548;-88
2022/06/11 11:05:23;;;;;;;13.25;2.88;;;22.10;99.90;;;;;;4966864;28;20553;-87
2022/06/11 11:07:54;;;;;;;13.32;2.72;;;22.20;99.90;;;;;;4953578;28;20042;-87
2022/06/11 11:10:35;;;;;;;13.43;3.10;;;22.40;99.90;;;;;;4952342;28;20058;-87
2022/06/11 11:13:12;;;;;;;32.92;5.05;;;22.20;99.90;;;;;;4951190;28;20336;-90
2022/06/11 11:15:41;;;;;;;15.63;3.50;;;22.20;99.90;;;;;;4960929;28;20514;-89
2022/06/11 11:18:20;;;;;;;11.95;2.67;;;22.20;99.90;;;;;;4967798;28;20042;-87
2022/06/11 11:20:48;;;;;;;13.80;3.22;;;22.40;99.90;;;;;;4965655;28;20508;-87
2022/06/11 11:23:28;;;;;;;15.82;3.13;;;22.50;99.90;;;;;;4966635;28;20035;-87
2022/06/11 11:25:59;;;;;;;11.70;2.72;;;22.60;99.90;;;;;;4952927;28;20486;-88
2022/06/11 11:29:08;;;;;;;12.93;2.80;;;22.70;99.90;;;;;;4951298;28;20039;-90
2022/06/11 11:31:48;;;;;;;11.80;3.03;;;22.80;99.90;;;;;;4949022;28;20050;-87
2022/06/11 11:34:27;;;;;;;10.95;3.17;;;22.80;99.90;;;;;;4964786;28;20045;-88
2022/06/11 11:37:16;;;;;;;12.45;2.40;;;22.70;99.90;;;;;;4951419;28;20039;-88
2022/06/11 11:39:59;;;;;;;13.73;3.00;;;22.60;99.90;;;;;;4963468;28;20054;-88
2022/06/11 11:42:39;;;;;;;12.52;3.00;;;22.40;99.90;;;;;;4963821;28;20053;-85
2022/06/11 11:45:40;;;;;;;14.50;3.15;;;22.20;99.90;;;;;;4950498;28;20038;-86
2022/06/11 11:48:11;;;;;;;18.60;3.13;;;22.10;99.90;;;;;;4963462;28;20413;-83
2022/06/11 11:50:40;;;;;;;20.15;3.47;;;22.20;99.90;;;;;;4935174;28;20281;-86
2022/06/11 11:53:34;;;;;;;12.23;2.70;;;22.40;99.90;;;;;;4968513;28;20039;-84
2022/06/11 11:56:31;;;;;;;14.18;3.10;;;22.60;99.90;;;;;;4954799;28;20042;-87
2022/06/11 11:59:03;;;;;;;22.33;3.70;;;22.80;99.90;;;;;;4943111;28;20074;-87
2022/06/11 12:01:30;;;;;;;30.73;4.07;;;22.80;99.90;;;;;;4965893;28;20047;-84
2022/06/11 12:04:10;;;;;;;16.80;3.20;;;22.90;99.90;;;;;;4966197;28;20042;-82
2022/06/11 12:06:44;;;;;;;15.48;2.80;;;22.90;99.90;;;;;;4947744;28;20673;-82
2022/06/11 12:09:36;;;;;;;12.65;2.67;;;23.10;99.90;;;;;;4947066;28;20039;-85
2022/06/11 12:12:18;;;;;;;20.15;3.60;;;23.10;99.90;;;;;;4946946;28;20051;-82
2022/06/11 12:14:49;;;;;;;11.73;2.72;;;23.30;99.90;;;;;;4962451;28;20519;-80
2022/06/11 12:17:34;;;;;;;13.15;3.30;;;23.20;99.90;;;;;;4949126;28;20042;-82
2022/06/11 12:20:04;;;;;;;11.13;2.90;;;23.10;99.90;;;;;;4949439;28;20105;-85
2022/06/11 12:22:40;;;;;;;12.82;2.55;;;22.90;99.90;;;;;;4945173;28;20046;-79
2022/06/11 12:25:09;;;;;;;11.32;2.63;;;22.90;99.90;;;;;;4944179;28;20069;-81
2022/06/11 12:27:39;;;;;;;15.75;3.22;;;23.10;99.90;;;;;;4966707;28;20074;-83
2022/06/11 12:30:34;;;;;;;10.65;2.25;;;22.90;99.90;;;;;;4964755;28;20102;-83
2022/06/11 12:33:00;;;;;;;11.20;2.80;;;23.00;99.90;;;;;;4937082;28;20273;-81
2022/06/11 12:35:40;;;;;;;12.07;2.90;;;23.10;99.90;;;;;;4932815;29;20055;-80
2022/06/11 12:38:24;;;;;;;10.65;2.25;;;23.10;99.90;;;;;;4964061;28;20042;-82
2022/06/11 12:41:03;;;;;;;10.60;2.30;;;23.20;99.90;;;;;;4966742;28;20139;-81
2022/06/11 12:43:56;;;;;;;11.70;2.78;;;23.30;99.90;;;;;;4960250;28;20039;-81
2022/06/11 12:46:22;;;;;;;10.93;2.33;;;23.30;99.90;;;;;;4965923;28;20046;-80
2022/06/11 12:49:07;;;;;;;8.15;1.90;;;23.30;99.90;;;;;;4966076;28;20394;-80
2022/06/11 12:51:42;;;;;;;8.93;2.33;;;23.50;99.90;;;;;;4948005;28;20043;-82
2022/06/11 12:54:10;;;;;;;12.35;2.70;;;23.40;99.90;;;;;;4944203;28;20359;-83
2022/06/11 12:56:53;;;;;;;14.43;3.00;;;23.20;99.90;;;;;;4962564;28;20374;-82
2022/06/11 12:59:29;;;;;;;12.02;2.58;;;22.80;99.90;;;;;;4963321;28;20105;-81
2022/06/11 13:02:22;;;;;;;10.50;2.28;;;22.80;99.90;;;;;;4965832;28;20051;-81
2022/06/11 13:05:23;;;;;;;10.43;2.25;;;22.80;99.90;;;;;;4967666;28;20042;-81
2022/06/11 13:08:18;;;;;;;10.50;2.20;;;22.70;99.90;;;;;;4934308;28;20406;-80
2022/06/11 13:11:34;;;;;;;9.30;2.05;;;22.80;99.90;;;;;;4952682;28;20050;-78
2022/06/11 13:14:28;;;;;;;10.65;2.70;;;22.90;99.90;;;;;;4955137;28;20073;-80